Sault Sainte Marie, MI

3:06 PM EDT on August 27, 2014 (GMT -0400)
Sault Ste Marie Municipal / Sanderson Field | Change Station
CLOSE
Current Station
Airport
Location: Sault Ste Marie,
Elevation: 715 ft
Nearby Weather Stations

Elev 715 ft 46.48 °N, 84.36 °W | Updated 11 minutes ago

Overcast
Overcast
62 °F
Feels Like 62 °F
N
14
Wind Variable Wind from NW
Gusts 21 mph

Today
High -- | Low -- °F
--% Chance of Precip.
Yesterday
High -- | Low -- °F
Precip. -- in
6:51 AM 8:25 PM
Waxing Crescent, 4% visible
Pressure 30.14 in
Visibility 10.0 miles
Clouds Few 3000 ft
Scattered Clouds 3900 ft
Overcast 4700 ft
Dew Point 48 °F
Humidity 60%
Rainfall 0.01 in
Snow Depth Not available.
UV 2 out of 12
Pollen 9.70 out of 12
Ozone Good
PM2.5 Good
Flu Activity Not available.
METAR KANJ 271855Z AUTO 32012G18KT 10SM FEW030 SCT039 OVC047 17/09 A3014 RMK AO2 SLP205 T01670089

More Conditions Fewer Conditions

Pressure 30.14 in
Visibility 10.0 miles
Clouds Few 3000 ft
Scattered Clouds 3900 ft
Overcast 4700 ft
Dew Point 48 °F
Humidity 60%
Rainfall 0.01 in
Snow Depth Not available.
UV 2 out of 12
Pollen 9.70 out of 12
Ozone Good
PM2.5 Good
Flu Activity Not available.
METAR KANJ 271855Z AUTO 32012G18KT 10SM FEW030 SCT039 OVC047 17/09 A3014 RMK AO2 SLP205 T01670089

More Conditions Fewer Conditions

Nowcast | as of 3:00 PM EDT on August 27, 2014

At 4 PM...mostly clear. Temperature 62. Northwest winds 15 mph. At 6 PM...mostly clear. Temperature 60. Northwest winds 13 mph. At 8 PM...clear. Temperature 57. Northwest winds 9 mph. At 10 PM...clear. Temperature 52. Northwest winds 7 mph.

×

10-Day Weather Forecast

Almanac

Astronomy

Aug. 27, 2014 Rise Set
Actual Time 6:51 AM EDT 8:25 PM EDT
Civil Twilight 6:19 AM EDT 8:57 PM EDT
Nautical Twilight 5:40 AM EDT 9:35 PM EDT
Astronomical Twilight 4:59 AM EDT 10:17 PM EDT
Moon 8:55 AM EDT 9:06 PM EDT
Length of Visible Light 14h 37m
Length of Day
13h 34m
Tomorrow will be 3m 8s shorter.
Waxing Crescent, 4% of the Moon is Illuminated
Today
Waxing Crescent
Sep 2
First Quarter
Sep 8
Full
Sep 15
Last Quarter
Sep 24
New

Today's Extremes

State Highs State Lows

Community

WunderPhotos

Upload Photos

1,747,753 photos uploaded!

Nearby

Air Quality

  Air Quality AQ Index Pollutant
Yesterday Good
OZONE
Yesterday Good
PM2.5
Current Good
OZONE
Current Good
PM2.5
Wednesday Good
OZONE
Wednesday Good
PM2.5
Thursday Good
OZONE
Thursday Good
PM2.5
Friday Good
OZONE
Friday Good
PM2.5

Snow Depth

Station Depth Elevation
No new snow has been reported.

Earthquake Activity

City Distance Mag. Time & Date
No recent earthquake activity has been reported nearby.
Minimum magnitude displayed is 2.5.

Coastal Water Temperatures

Place Temperature
De Tour Village, MI 61.0 °F
Rock Cut, MI 61.0 °F
Little Rapids, MI 57.9 °F
S W Pier, MI 60.1 °F
West Neebish, MI 59.0 °F

Nearby Weather Stations